createdAt,value
2022-10-30T00:02:28.445Z,10.37
2022-10-30T00:07:21.702Z,11.17
2022-10-30T00:12:16.308Z,10.35
2022-10-30T00:17:09.501Z,11.03
2022-10-30T00:26:55.222Z,10.95
2022-10-30T00:31:49.842Z,11.27
2022-10-30T00:36:43.076Z,11.44
2022-10-30T00:41:37.235Z,11.34
2022-10-30T00:46:34.299Z,11.00
2022-10-30T00:51:30.335Z,10.57
2022-10-30T00:56:25.480Z,11.15
2022-10-30T01:01:23.015Z,10.91
2022-10-30T01:06:24.042Z,10.72
2022-10-30T01:11:22.657Z,10.21
2022-10-30T01:16:39.806Z,10.28
2022-10-30T01:21:49.080Z,10.48
2022-10-30T01:27:04.518Z,10.12
2022-10-30T01:32:13.895Z,10.26
2022-10-30T01:37:19.363Z,10.28
2022-10-30T01:42:48.440Z,10.35
2022-10-30T01:47:58.971Z,10.15
2022-10-30T01:53:04.984Z,10.18
2022-10-30T01:58:05.840Z,9.62
2022-10-30T02:02:59.730Z,10.69
2022-10-30T02:07:53.626Z,10.53
2022-10-30T02:12:47.113Z,9.81
2022-10-30T02:17:41.878Z,10.29
2022-10-30T02:22:37.668Z,10.57
2022-10-30T02:27:30.930Z,10.95
2022-10-30T02:32:24.200Z,10.88
2022-10-30T02:37:19.724Z,11.05
2022-10-30T02:42:14.383Z,11.07
2022-10-30T02:47:09.346Z,10.89
2022-10-30T02:52:02.634Z,10.99
2022-10-30T02:56:55.920Z,10.37
2022-10-30T03:01:50.627Z,10.82
2022-10-30T03:06:43.908Z,10.81
2022-10-30T03:11:37.366Z,11.53
2022-10-30T03:16:31.122Z,11.54
2022-10-30T03:21:28.012Z,11.69
2022-10-30T03:26:21.961Z,11.79
2022-10-30T03:31:23.589Z,12.20
2022-10-30T03:36:34.979Z,12.24
2022-10-30T03:41:28.663Z,12.01
2022-10-30T03:46:22.010Z,12.19
2022-10-30T03:51:16.753Z,12.01
2022-10-30T03:56:14.277Z,12.34
2022-10-30T04:01:14.716Z,12.22
2022-10-30T04:06:14.648Z,12.49
2022-10-30T04:11:08.017Z,11.45
2022-10-30T04:16:03.170Z,12.41
2022-10-30T04:20:57.002Z,12.12
2022-10-30T04:25:53.062Z,12.33
2022-10-30T04:30:47.117Z,11.80
2022-10-30T04:35:44.377Z,11.77
2022-10-30T04:40:43.380Z,12.42
2022-10-30T04:45:39.249Z,11.40
2022-10-30T04:50:33.703Z,11.87
2022-10-30T04:55:28.827Z,12.62
2022-10-30T05:00:22.232Z,12.07
2022-10-30T05:05:15.581Z,12.11
2022-10-30T05:10:09.785Z,12.44
2022-10-30T05:15:05.106Z,12.60
2022-10-30T05:20:00.520Z,12.51
2022-10-30T05:24:53.789Z,11.57
2022-10-30T05:29:48.351Z,11.85
2022-10-30T05:34:43.960Z,12.18
2022-10-30T05:39:38.331Z,12.38
2022-10-30T05:44:59.191Z,12.19
2022-10-30T05:49:53.871Z,12.33
2022-10-30T05:54:50.419Z,12.39
2022-10-30T06:00:02.139Z,12.30
2022-10-30T06:04:58.903Z,12.37
2022-10-30T06:09:52.705Z,12.41
2022-10-30T06:15:06.626Z,12.66
2022-10-30T06:20:01.468Z,12.50
2022-10-30T06:25:14.629Z,12.91
2022-10-30T06:30:37.002Z,12.99
2022-10-30T06:35:32.500Z,13.28
2022-10-30T06:40:27.286Z,13.29
2022-10-30T06:45:38.947Z,13.41
2022-10-30T06:50:34.549Z,13.89
2022-10-30T06:55:27.848Z,14.04
2022-10-30T07:00:57.091Z,14.51
2022-10-30T07:06:10.447Z,14.54
2022-10-30T07:11:04.359Z,14.76
2022-10-30T07:16:15.987Z,14.98
2022-10-30T07:21:13.645Z,15.14
2022-10-30T07:26:07.825Z,15.32
2022-10-30T07:31:09.778Z,15.37
2022-10-30T07:36:27.168Z,15.61
2022-10-30T07:41:52.457Z,15.99
2022-10-30T07:47:08.702Z,16.20
2022-10-30T07:52:32.392Z,16.19
2022-10-30T07:57:26.201Z,16.61
2022-10-30T08:02:51.838Z,16.76
2022-10-30T08:08:06.292Z,16.95
2022-10-30T08:12:59.555Z,16.87
2022-10-30T08:17:53.328Z,17.03
2022-10-30T08:22:48.394Z,17.37
2022-10-30T08:27:51.430Z,17.57
2022-10-30T08:32:45.061Z,17.77
2022-10-30T08:37:57.857Z,17.73
2022-10-30T08:42:53.491Z,18.21
2022-10-30T08:47:48.501Z,18.46
2022-10-30T08:52:42.449Z,18.94
2022-10-30T08:57:37.491Z,19.62
2022-10-30T09:02:32.091Z,20.47
2022-10-30T09:07:51.507Z,20.95
2022-10-30T09:13:03.378Z,21.55
2022-10-30T09:17:59.919Z,21.61
2022-10-30T09:22:54.310Z,21.78
2022-10-30T09:27:48.296Z,21.80
2022-10-30T09:32:42.953Z,21.74
2022-10-30T09:37:44.374Z,21.88
2022-10-30T09:42:45.867Z,21.77
2022-10-30T09:47:53.839Z,21.91
2022-10-30T09:53:03.580Z,21.94
2022-10-30T09:58:10.957Z,21.68
2022-10-30T10:03:19.006Z,21.80
2022-10-30T10:08:43.281Z,21.95
2022-10-30T10:14:01.842Z,21.86
2022-10-30T10:19:01.715Z,21.90
2022-10-30T10:23:57.661Z,22.01
2022-10-30T10:29:01.746Z,22.03
2022-10-30T10:34:06.734Z,22.21
2022-10-30T10:39:28.796Z,22.30
2022-10-30T10:44:34.537Z,22.32
2022-10-30T10:49:41.243Z,22.44
2022-10-30T10:54:40.343Z,22.68
2022-10-30T10:59:37.715Z,22.89
2022-10-30T11:04:36.985Z,22.65
2022-10-30T11:09:30.256Z,23.02
2022-10-30T11:14:26.554Z,22.68
2022-10-30T11:19:20.930Z,22.97
2022-10-30T11:24:31.487Z,23.02
2022-10-30T11:29:29.160Z,23.09
2022-10-30T11:34:30.128Z,23.28
2022-10-30T11:39:24.875Z,23.19
2022-10-30T11:44:18.088Z,23.34
2022-10-30T11:49:29.673Z,23.17
2022-10-30T11:54:23.581Z,23.38
2022-10-30T11:59:20.873Z,22.87
2022-10-30T12:04:16.848Z,23.18
2022-10-30T12:09:16.031Z,23.15
2022-10-30T12:14:18.765Z,23.49
2022-10-30T12:19:16.480Z,23.40
2022-10-30T12:24:20.368Z,23.46
2022-10-30T12:29:17.904Z,23.46
2022-10-30T12:34:24.046Z,23.28
2022-10-30T12:39:28.427Z,23.18
2022-10-30T12:44:28.475Z,23.35
2022-10-30T12:49:26.825Z,23.29
2022-10-30T12:54:29.453Z,23.10
2022-10-30T12:59:31.880Z,23.15
2022-10-30T13:04:27.964Z,22.83
2022-10-30T13:09:26.462Z,23.14
2022-10-30T13:14:27.559Z,23.25
2022-10-30T13:19:20.718Z,22.93
2022-10-30T13:24:19.887Z,22.81
2022-10-30T13:29:25.289Z,23.12
2022-10-30T13:34:32.528Z,23.18
2022-10-30T13:39:32.396Z,22.91
2022-10-30T13:44:40.089Z,22.89
2022-10-30T13:50:05.940Z,22.69
2022-10-30T13:55:03.071Z,22.80
2022-10-30T14:00:17.844Z,22.68
2022-10-30T14:05:21.128Z,22.68
2022-10-30T14:10:21.471Z,22.16
2022-10-30T14:15:27.610Z,22.46
2022-10-30T14:20:27.950Z,22.28
2022-10-30T14:25:21.209Z,21.92
2022-10-30T14:30:21.496Z,22.00
2022-10-30T14:35:36.448Z,21.74
2022-10-30T14:40:39.884Z,21.66
2022-10-30T14:45:43.631Z,21.58
2022-10-30T14:50:59.261Z,21.43
2022-10-30T14:56:36.383Z,20.88
2022-10-30T15:01:51.708Z,20.56
2022-10-30T15:06:59.154Z,19.77
2022-10-30T15:12:26.903Z,19.74
2022-10-30T15:17:35.021Z,19.55
2022-10-30T15:23:00.559Z,19.73
2022-10-30T15:28:05.681Z,18.94
2022-10-30T15:33:03.686Z,19.62
2022-10-30T15:38:02.465Z,19.44
2022-10-30T15:42:57.832Z,19.61
2022-10-30T15:48:00.482Z,19.14
2022-10-30T15:59:53.310Z,17.89
2022-10-30T16:04:59.349Z,18.73
2022-10-30T16:10:26.435Z,17.61
2022-10-30T16:22:23.577Z,18.70
2022-10-30T16:27:28.569Z,17.46
2022-10-30T16:32:28.682Z,18.33
2022-10-30T16:37:38.005Z,18.00
2022-10-30T16:42:54.941Z,17.28
2022-10-30T16:54:44.423Z,17.07
2022-10-30T17:06:05.509Z,17.08
2022-10-30T17:11:09.170Z,17.51
2022-10-30T17:17:15.572Z,17.55
2022-10-30T17:22:24.287Z,17.58
2022-10-30T17:27:52.177Z,16.67
2022-10-30T17:33:52.143Z,17.01
2022-10-30T17:44:58.131Z,16.39
2022-10-30T17:49:52.130Z,17.04
2022-10-30T18:01:55.526Z,16.55
2022-10-30T18:07:13.403Z,16.58
2022-10-30T18:18:43.412Z,15.35
2022-10-30T18:32:26.487Z,15.41
2022-10-30T18:45:05.563Z,15.43
2022-10-30T19:01:33.452Z,15.37
2022-10-30T19:06:34.733Z,15.27
2022-10-30T19:11:33.153Z,14.12
2022-10-30T19:16:38.174Z,15.12
2022-10-30T19:21:37.815Z,15.37
2022-10-30T19:26:35.191Z,15.34
2022-10-30T19:31:30.466Z,15.37
2022-10-30T19:36:34.226Z,14.67
2022-10-30T19:41:32.526Z,14.29
2022-10-30T19:46:30.481Z,14.42
2022-10-30T19:51:23.975Z,14.89
2022-10-30T19:56:23.176Z,14.91
2022-10-30T20:01:19.312Z,14.48
2022-10-30T20:06:17.321Z,14.91
2022-10-30T20:11:10.999Z,14.44
2022-10-30T20:16:05.394Z,15.11
2022-10-30T20:21:06.100Z,14.85
2022-10-30T20:26:07.870Z,15.20
2022-10-30T20:31:03.343Z,14.10
2022-10-30T20:35:57.624Z,15.26
2022-10-30T20:40:54.499Z,14.18
2022-10-30T20:45:49.441Z,15.09
2022-10-30T20:50:50.817Z,15.46
2022-10-30T20:55:46.699Z,13.98
2022-10-30T21:00:40.233Z,14.56
2022-10-30T21:05:46.142Z,15.04
2022-10-30T21:10:42.627Z,14.44
2022-10-30T21:15:40.392Z,14.84
2022-10-30T21:20:35.054Z,14.71
2022-10-30T21:25:28.858Z,15.29
2022-10-30T21:30:24.371Z,14.90
2022-10-30T21:35:19.035Z,15.15
2022-10-30T21:40:22.963Z,15.16
2022-10-30T21:45:16.484Z,15.17
2022-10-30T21:50:12.648Z,14.42
2022-10-30T21:55:10.463Z,15.22
2022-10-30T22:00:11.441Z,15.27
2022-10-30T22:05:12.393Z,14.12
2022-10-30T22:10:07.615Z,14.89
2022-10-30T22:15:00.940Z,13.92
2022-10-30T22:19:58.317Z,15.17
2022-10-30T22:24:51.611Z,14.77
2022-10-30T22:29:44.959Z,14.76
2022-10-30T22:34:38.396Z,14.37
2022-10-30T22:39:35.200Z,14.13
2022-10-30T22:44:28.749Z,15.38
2022-10-30T22:49:38.018Z,15.30
2022-10-30T22:54:47.035Z,13.72
2022-10-30T22:59:49.744Z,14.91
2022-10-30T23:04:46.061Z,14.98
2022-10-30T23:09:55.071Z,14.66
2022-10-30T23:14:59.044Z,13.92
2022-10-30T23:20:16.508Z,15.34
2022-10-30T23:25:12.890Z,14.87
2022-10-30T23:30:10.575Z,14.37
2022-10-30T23:35:08.743Z,15.34
2022-10-30T23:40:07.556Z,14.37
2022-10-30T23:45:04.315Z,15.14
2022-10-30T23:50:08.296Z,14.06
2022-10-30T23:55:34.203Z,15.22
